Archived

This topic is now archived and is closed to further replies.

ak657

Sand Storm?

Recommended Posts

should I land?

 

OMDB 091400Z 14020KT 1200 R12L/1100VP2000D BLDU SCT040CB 33/18 Q1006 WS ALL RWY TEMPO 0500 SS

Share this post


Link to post
Share on other sites
Help AVSIM continue to serve you!
Please donate today!

Ben,did you happen to see a delta 777 parked at the gate? Assuming you were on vatsim? I landed in this sand storm about 2 hours ago and saw a BA t7 taxiing by.

 

No i've been waiting to go online until I have her figured out better.  I'm wondering though is it advisable to land in a sand storm?  I was worried if it was like volcanic ash at all?  

Share this post


Link to post
Share on other sites